Time;durP1;ratioP1;P1;durP2;ratioP2;P2;SDS_P1;SDS_P2;PMS_P1;PMS_P2;Temp;Humidity;BMP_temperature;BMP_pressure;BME280_temperature;BME280_humidity;BME280_pressure;Samples;Min_cycle;Max_cycle;Signal;HPM_P1;HPM_P2
2023/06/17 00:01:09;;;;;;;4.70;4.28;;;;;;;;;;5082794;27;98333;-75
2023/06/17 00:03:35;;;;;;;5.53;3.97;;;;;;;;;;5089855;27;98849;-74
2023/06/17 00:06:01;;;;;;;4.50;4.05;;;;;;;;;;5089664;27;99256;-76
2023/06/17 00:08:28;;;;;;;4.55;3.17;;;;;;;;;;5091003;27;98197;-77
2023/06/17 00:10:54;;;;;;;5.57;3.53;;;;;;;;;;5091743;27;99220;-76
2023/06/17 00:13:22;;;;;;;4.28;3.97;;;;;;;;;;5092574;27;100105;-76
2023/06/17 00:15:50;;;;;;;5.20;4.30;;;;;;;;;;5090803;27;99852;-76
2023/06/17 00:18:19;;;;;;;4.10;3.70;;;;;;;;;;5075550;27;100333;-76
2023/06/17 00:20:46;;;;;;;4.90;4.20;;;;;;;;;;5086788;27;98294;-76
2023/06/17 00:23:13;;;;;;;4.65;4.35;;;;;;;;;;5077995;27;98657;-76
2023/06/17 00:25:39;;;;;;;4.60;4.30;;;;;;;;;;5070360;27;100316;-76
2023/06/17 00:28:05;;;;;;;4.60;4.22;;;;;;;;;;5069422;27;98239;-76
2023/06/17 00:30:32;;;;;;;4.80;4.30;;;;;;;;;;5051689;27;101282;-76
2023/06/17 00:32:59;;;;;;;10.48;4.03;;;;;;;;;;5051846;27;100037;-77
2023/06/17 00:35:26;;;;;;;4.78;4.30;;;;;;;;;;5090413;27;98348;-77
2023/06/17 00:37:52;;;;;;;4.68;4.30;;;;;;;;;;5071614;27;101102;-76
2023/06/17 00:40:19;;;;;;;5.10;4.57;;;;;;;;;;5091074;27;98185;-76
2023/06/17 00:42:47;;;;;;;4.47;4.15;;;;;;;;;;5060927;27;100060;-76
2023/06/17 00:45:13;;;;;;;10.35;4.72;;;;;;;;;;5050001;27;101779;-76
2023/06/17 00:47:40;;;;;;;6.40;4.70;;;;;;;;;;5070836;27;99396;-76
2023/06/17 00:50:08;;;;;;;4.97;4.57;;;;;;;;;;5069020;27;98474;-76
2023/06/17 00:52:36;;;;;;;4.85;4.45;;;;;;;;;;5068183;27;99168;-76
2023/06/17 00:55:09;;;;;;;4.70;4.30;;;;;;;;;;5090266;27;98239;-75
2023/06/17 00:57:37;;;;;;;5.10;4.57;;;;;;;;;;5093309;27;98898;-75
2023/06/17 01:00:06;;;;;;;5.80;5.03;;;;;;;;;;5071932;27;98270;-76
2023/06/17 01:02:33;;;;;;;8.85;5.28;;;;;;;;;;5090082;27;98554;-77
2023/06/17 01:05:01;;;;;;;5.57;5.10;;;;;;;;;;5089134;27;99747;-77
2023/06/17 01:07:46;;;;;;;7.18;5.10;;;;;;;;;;5090635;27;98138;-75
2023/06/17 01:10:36;;;;;;;10.25;4.68;;;;;;;;;;5070194;27;98220;-77
2023/06/17 01:13:04;;;;;;;6.55;4.90;;;;;;;;;;5014343;27;100053;-77
2023/06/17 01:15:34;;;;;;;5.60;5.10;;;;;;;;;;5089059;27;98580;-76
2023/06/17 01:18:04;;;;;;;6.20;5.25;;;;;;;;;;5070268;27;100288;-76
2023/06/17 01:20:32;;;;;;;5.43;5.03;;;;;;;;;;5075207;27;100027;-75
2023/06/17 01:23:00;;;;;;;6.97;5.13;;;;;;;;;;5090323;27;98950;-76
2023/06/17 01:25:31;;;;;;;6.35;4.82;;;;;;;;;;5063642;27;101688;-76
2023/06/17 01:28:00;;;;;;;5.35;4.93;;;;;;;;;;5090449;27;97960;-76
2023/06/17 01:30:30;;;;;;;5.45;4.95;;;;;;;;;;5071601;27;100427;-76
2023/06/17 01:32:58;;;;;;;6.15;5.25;;;;;;;;;;5053932;27;101571;-75
2023/06/17 01:35:31;;;;;;;6.75;4.90;;;;;;;;;;5088419;27;98522;-75
2023/06/17 01:38:04;;;;;;;7.75;4.80;;;;;;;;;;5090479;27;98621;-75
2023/06/17 01:40:32;;;;;;;5.68;4.97;;;;;;;;;;5071006;27;100249;-76
2023/06/17 01:43:01;;;;;;;6.05;5.50;;;;;;;;;;5060453;27;98264;-75
2023/06/17 01:45:28;;;;;;;10.10;4.95;;;;;;;;;;5051190;27;101681;-76
2023/06/17 01:47:56;;;;;;;5.93;4.97;;;;;;;;;;5050216;27;98346;-77
2023/06/17 01:50:22;;;;;;;6.38;5.30;;;;;;;;;;5069804;27;98506;-76
2023/06/17 01:52:49;;;;;;;5.38;4.97;;;;;;;;;;5050869;27;99240;-77
2023/06/17 01:55:16;;;;;;;5.75;5.25;;;;;;;;;;5068818;27;98408;-77
2023/06/17 01:57:43;;;;;;;8.73;5.18;;;;;;;;;;5053333;27;100843;-78
2023/06/17 02:00:12;;;;;;;6.97;6.07;;;;;;;;;;5065735;27;101645;-75
2023/06/17 02:02:50;;;;;;;5.82;5.28;;;;;;;;;;5071769;27;97993;-77
2023/06/17 02:05:18;;;;;;;10.32;5.10;;;;;;;;;;5057390;27;101435;-77
2023/06/17 02:07:45;;;;;;;6.13;5.63;;;;;;;;;;5056590;27;98450;-76
2023/06/17 02:10:12;;;;;;;6.18;5.72;;;;;;;;;;5068708;27;101384;-76
2023/06/17 02:12:38;;;;;;;6.10;5.55;;;;;;;;;;5074377;27;100055;-76
2023/06/17 02:15:05;;;;;;;6.22;5.25;;;;;;;;;;5073062;27;98213;-76
2023/06/17 02:17:35;;;;;;;6.82;5.63;;;;;;;;;;5097429;27;98709;-76
2023/06/17 02:20:05;;;;;;;6.88;5.72;;;;;;;;;;5096963;27;101179;-75
2023/06/17 02:22:32;;;;;;;6.25;5.68;;;;;;;;;;5095271;27;98100;-76
2023/06/17 02:24:59;;;;;;;5.85;5.35;;;;;;;;;;5095821;27;98232;-76
2023/06/17 02:27:25;;;;;;;6.80;6.13;;;;;;;;;;5073167;27;98683;-76
2023/06/17 02:29:52;;;;;;;8.63;6.30;;;;;;;;;;5053851;27;99371;-76
2023/06/17 02:32:18;;;;;;;6.85;6.03;;;;;;;;;;5071837;27;98652;-76
2023/06/17 02:34:48;;;;;;;11.52;6.68;;;;;;;;;;5073187;27;99304;-77
2023/06/17 02:37:14;;;;;;;7.15;6.40;;;;;;;;;;5073850;27;99731;-76
2023/06/17 02:39:41;;;;;;;8.10;6.93;;;;;;;;;;5073281;27;101173;-76
2023/06/17 02:42:08;;;;;;;8.02;5.97;;;;;;;;;;5053537;27;98108;-76
2023/06/17 02:44:35;;;;;;;7.65;5.65;;;;;;;;;;5071702;27;99194;-75
2023/06/17 02:47:02;;;;;;;7.32;6.10;;;;;;;;;;5056667;27;103328;-77
2023/06/17 02:49:29;;;;;;;10.27;5.93;;;;;;;;;;5053816;27;99346;-75
2023/06/17 02:51:56;;;;;;;7.10;6.00;;;;;;;;;;5072418;27;98732;-78
2023/06/17 02:54:22;;;;;;;9.88;6.25;;;;;;;;;;5053827;27;98037;-78
2023/06/17 02:56:49;;;;;;;6.72;6.20;;;;;;;;;;5051867;27;101185;-77
2023/06/17 02:59:17;;;;;;;6.82;6.18;;;;;;;;;;5071560;27;98731;-76
2023/06/17 03:01:46;;;;;;;6.28;5.68;;;;;;;;;;5054085;27;98304;-76
2023/06/17 03:04:13;;;;;;;6.72;6.13;;;;;;;;;;5052872;27;101319;-75
2023/06/17 03:06:44;;;;;;;7.10;6.45;;;;;;;;;;5072265;27;98919;-77
2023/06/17 03:09:11;;;;;;;7.23;6.53;;;;;;;;;;5055793;27;98241;-79
2023/06/17 03:11:39;;;;;;;7.97;7.18;;;;;;;;;;5053089;27;100922;-78
2023/06/17 03:14:07;;;;;;;7.40;6.72;;;;;;;;;;5072511;27;98221;-77
2023/06/17 03:16:38;;;;;;;23.98;8.32;;;;;;;;;;5053678;27;100651;-77
2023/06/17 03:19:05;;;;;;;7.15;6.55;;;;;;;;;;5070590;27;99294;-78
2023/06/17 03:21:39;;;;;;;9.10;7.57;;;;;;;;;;5052755;27;98358;-78
2023/06/17 03:24:06;;;;;;;10.45;7.82;;;;;;;;;;5053141;27;98165;-76
2023/06/17 03:26:34;;;;;;;8.73;7.80;;;;;;;;;;5068708;27;101792;-75
2023/06/17 03:29:01;;;;;;;12.35;7.93;;;;;;;;;;5073761;27;98264;-78
2023/06/17 03:31:29;;;;;;;8.38;7.50;;;;;;;;;;5077150;27;101194;-77
2023/06/17 03:33:56;;;;;;;8.85;7.82;;;;;;;;;;5072743;27;98394;-75
2023/06/17 03:36:28;;;;;;;10.88;7.95;;;;;;;;;;5073692;27;100738;-76
2023/06/17 03:38:55;;;;;;;10.57;7.70;;;;;;;;;;5072212;27;99875;-76
2023/06/17 03:41:24;;;;;;;13.75;8.13;;;;;;;;;;5066093;27;98227;-77
2023/06/17 03:43:50;;;;;;;8.77;7.88;;;;;;;;;;5052831;27;100283;-75
2023/06/17 03:46:17;;;;;;;8.95;6.70;;;;;;;;;;5051027;27;101886;-75
2023/06/17 03:48:44;;;;;;;7.88;7.18;;;;;;;;;;5063353;27;98537;-76
2023/06/17 03:51:11;;;;;;;9.88;7.57;;;;;;;;;;5054807;27;98226;-76
2023/06/17 03:53:38;;;;;;;7.93;7.22;;;;;;;;;;5055461;27;101198;-76
2023/06/17 03:56:04;;;;;;;9.02;8.20;;;;;;;;;;5072209;27;99379;-76
2023/06/17 03:58:32;;;;;;;8.35;7.55;;;;;;;;;;5060740;27;101445;-78
2023/06/17 04:00:59;;;;;;;8.63;7.82;;;;;;;;;;5090979;27;98212;-77
2023/06/17 04:03:26;;;;;;;8.02;7.30;;;;;;;;;;5073761;27;101243;-77
2023/06/17 04:05:53;;;;;;;9.57;7.30;;;;;;;;;;5072773;27;100146;-77
2023/06/17 04:08:22;;;;;;;9.90;7.28;;;;;;;;;;5068268;27;98262;-77
2023/06/17 04:10:49;;;;;;;9.65;7.20;;;;;;;;;;5070367;27;98269;-77
2023/06/17 04:13:16;;;;;;;8.65;7.85;;;;;;;;;;5052268;27;99218;-77
2023/06/17 04:15:45;;;;;;;9.18;7.38;;;;;;;;;;5055682;27;98179;-77
2023/06/17 04:18:12;;;;;;;11.48;7.57;;;;;;;;;;5070840;27;98743;-77
2023/06/17 04:20:40;;;;;;;8.60;7.60;;;;;;;;;;5052809;27;98068;-77
2023/06/17 04:23:06;;;;;;;8.25;7.40;;;;;;;;;;5057812;27;101167;-77
2023/06/17 04:25:36;;;;;;;8.65;7.85;;;;;;;;;;5089632;27;98666;-77
2023/06/17 04:28:07;;;;;;;11.70;8.27;;;;;;;;;;5071947;27;98715;-77
2023/06/17 04:30:34;;;;;;;8.40;7.65;;;;;;;;;;5073367;27;100941;-77
2023/06/17 04:33:01;;;;;;;8.60;7.82;;;;;;;;;;5059579;27;101958;-77
2023/06/17 04:35:29;;;;;;;10.48;7.97;;;;;;;;;;5054165;27;98270;-77
2023/06/17 04:37:58;;;;;;;8.07;7.22;;;;;;;;;;5052025;27;100971;-77
2023/06/17 04:40:25;;;;;;;11.57;7.28;;;;;;;;;;5055455;27;98302;-77
2023/06/17 04:42:52;;;;;;;13.07;7.75;;;;;;;;;;5090619;27;98243;-77
2023/06/17 04:45:20;;;;;;;7.78;7.18;;;;;;;;;;5091121;27;100697;-76
2023/06/17 04:47:52;;;;;;;9.07;8.18;;;;;;;;;;5073027;27;98486;-77
2023/06/17 04:50:19;;;;;;;12.05;8.00;;;;;;;;;;5056596;27;101298;-77
2023/06/17 04:52:53;;;;;;;8.73;7.90;;;;;;;;;;5052276;27;99009;-78
2023/06/17 04:55:23;;;;;;;8.70;7.80;;;;;;;;;;5052513;27;98365;-76
2023/06/17 04:57:50;;;;;;;12.98;8.82;;;;;;;;;;5054687;27;99427;-76
2023/06/17 05:00:31;;;;;;;8.65;7.53;;;;;;;;;;5051472;27;98128;-76
2023/06/17 05:02:57;;;;;;;13.63;7.82;;;;;;;;;;5051748;27;99439;-76
2023/06/17 05:05:24;;;;;;;9.07;8.20;;;;;;;;;;5050951;27;102119;-76
2023/06/17 05:07:51;;;;;;;16.60;8.35;;;;;;;;;;5070888;27;98260;-77
2023/06/17 05:10:18;;;;;;;19.98;8.27;;;;;;;;;;5050641;27;100562;-78
2023/06/17 05:12:46;;;;;;;9.40;8.35;;;;;;;;;;5051790;27;99014;-77
2023/06/17 05:15:13;;;;;;;9.00;7.57;;;;;;;;;;5052018;27;98366;-78
2023/06/17 05:17:40;;;;;;;9.88;8.23;;;;;;;;;;5069756;27;99388;-77
2023/06/17 05:20:10;;;;;;;9.75;8.02;;;;;;;;;;5054902;27;101095;-76
2023/06/17 05:22:38;;;;;;;8.77;8.00;;;;;;;;;;5049769;27;100311;-76
2023/06/17 05:25:06;;;;;;;10.45;7.53;;;;;;;;;;5050747;27;99975;-76
2023/06/17 05:27:32;;;;;;;9.73;7.53;;;;;;;;;;5070288;27;98210;-76
2023/06/17 05:30:00;;;;;;;8.00;7.22;;;;;;;;;;5071545;27;99398;-77
2023/06/17 05:32:26;;;;;;;25.23;7.35;;;;;;;;;;5070531;27;100011;-78
2023/06/17 05:34:53;;;;;;;14.63;8.18;;;;;;;;;;5072092;27;98207;-77
2023/06/17 05:37:19;;;;;;;7.63;6.28;;;;;;;;;;5071645;27;99129;-76
2023/06/17 05:39:46;;;;;;;8.93;6.60;;;;;;;;;;5066684;27;99852;-78
2023/06/17 05:42:13;;;;;;;9.30;5.80;;;;;;;;;;5054811;27;98215;-78
2023/06/17 05:44:43;;;;;;;6.15;5.55;;;;;;;;;;5051179;27;98898;-78
2023/06/17 05:47:10;;;;;;;6.00;5.43;;;;;;;;;;5049432;27;98260;-78
2023/06/17 05:49:39;;;;;;;5.90;5.40;;;;;;;;;;5066489;27;99446;-76
2023/06/17 05:52:06;;;;;;;8.55;5.57;;;;;;;;;;5068617;27;98790;-75
2023/06/17 05:54:33;;;;;;;6.28;5.35;;;;;;;;;;5054641;27;98400;-78
2023/06/17 05:56:59;;;;;;;5.63;5.15;;;;;;;;;;5084742;27;98653;-78
2023/06/17 05:59:28;;;;;;;5.88;5.25;;;;;;;;;;5068789;27;98790;-78
2023/06/17 06:01:56;;;;;;;9.40;4.63;;;;;;;;;;5053269;27;98300;-77
2023/06/17 06:04:24;;;;;;;5.03;4.63;;;;;;;;;;5054824;27;100718;-77
2023/06/17 06:06:50;;;;;;;4.70;4.30;;;;;;;;;;5081304;27;99968;-77
2023/06/17 06:09:17;;;;;;;3.97;3.72;;;;;;;;;;5055739;27;100659;-77
2023/06/17 06:11:43;;;;;;;4.50;3.95;;;;;;;;;;5060035;27;99870;-78
2023/06/17 06:14:09;;;;;;;8.13;3.90;;;;;;;;;;5069725;27;98410;-77
2023/06/17 06:16:36;;;;;;;6.35;3.90;;;;;;;;;;5071178;27;100931;-78
2023/06/17 06:19:02;;;;;;;4.72;4.03;;;;;;;;;;5070841;27;102134;-77
2023/06/17 06:21:29;;;;;;;4.97;3.88;;;;;;;;;;5089437;27;98108;-81
2023/06/17 06:23:56;;;;;;;4.57;3.80;;;;;;;;;;5057818;27;100627;-77
2023/06/17 06:26:27;;;;;;;3.83;3.53;;;;;;;;;;5053617;27;98250;-82
2023/06/17 06:28:54;;;;;;;6.82;3.55;;;;;;;;;;5085640;27;98410;-83
2023/06/17 06:31:21;;;;;;;6.07;3.22;;;;;;;;;;5066362;27;99969;-83
2023/06/17 06:33:48;;;;;;;3.78;3.47;;;;;;;;;;5059596;27;98405;-82
2023/06/17 06:36:16;;;;;;;5.13;3.60;;;;;;;;;;5068475;27;101056;-78
2023/06/17 06:38:43;;;;;;;3.13;2.83;;;;;;;;;;5060606;27;99936;-77
2023/06/17 06:41:09;;;;;;;6.10;3.33;;;;;;;;;;5062301;27;99647;-75
2023/06/17 06:43:42;;;;;;;4.43;3.40;;;;;;;;;;5067735;27;101068;-76
2023/06/17 06:46:14;;;;;;;4.18;3.17;;;;;;;;;;5074462;27;99038;-77
2023/06/17 06:48:42;;;;;;;3.40;3.20;;;;;;;;;;5077286;27;100750;-74
2023/06/17 06:51:09;;;;;;;4.80;3.40;;;;;;;;;;5054077;27;99995;-75
2023/06/17 06:53:35;;;;;;;4.70;3.50;;;;;;;;;;5071395;27;98286;-75
2023/06/17 06:56:02;;;;;;;3.67;3.17;;;;;;;;;;5058655;27;98923;-74
2023/06/17 06:58:33;;;;;;;3.75;3.42;;;;;;;;;;5071247;27;100328;-74
2023/06/17 07:00:59;;;;;;;2.92;2.63;;;;;;;;;;5052893;27;98284;-75
2023/06/17 07:03:26;;;;;;;5.80;2.90;;;;;;;;;;5057011;27;102390;-75
2023/06/17 07:05:53;;;;;;;2.90;2.60;;;;;;;;;;5070719;27;98770;-75
2023/06/17 07:08:20;;;;;;;3.95;2.50;;;;;;;;;;5075934;27;98875;-75
2023/06/17 07:10:47;;;;;;;3.00;2.80;;;;;;;;;;5056115;27;101305;-75
2023/06/17 07:13:14;;;;;;;2.70;2.50;;;;;;;;;;5052455;27;98513;-75
2023/06/17 07:15:41;;;;;;;5.35;3.40;;;;;;;;;;5055486;27;100248;-75
2023/06/17 07:18:09;;;;;;;3.38;2.83;;;;;;;;;;5072829;27;99004;-75
2023/06/17 07:20:38;;;;;;;2.67;2.47;;;;;;;;;;5064204;27;98736;-76
2023/06/17 07:23:05;;;;;;;7.75;3.08;;;;;;;;;;5076945;27;99198;-75
2023/06/17 07:25:32;;;;;;;3.33;3.03;;;;;;;;;;5078205;27;100034;-76
2023/06/17 07:28:01;;;;;;;3.15;2.95;;;;;;;;;;5056619;27;99496;-76
2023/06/17 07:30:29;;;;;;;6.23;2.97;;;;;;;;;;5062936;27;101778;-76
2023/06/17 07:32:58;;;;;;;3.20;2.90;;;;;;;;;;5041511;27;98867;-76
2023/06/17 07:35:25;;;;;;;3.00;2.80;;;;;;;;;;5063789;27;101034;-76
2023/06/17 07:37:52;;;;;;;2.92;2.70;;;;;;;;;;5070706;27;101195;-76
2023/06/17 07:40:19;;;;;;;4.25;2.50;;;;;;;;;;5071693;27;98674;-76
2023/06/17 07:42:46;;;;;;;3.17;2.50;;;;;;;;;;5081585;27;99700;-77
2023/06/17 07:45:12;;;;;;;8.25;2.47;;;;;;;;;;5073002;27;100037;-79
2023/06/17 07:47:39;;;;;;;3.50;2.70;;;;;;;;;;5073784;27;98760;-79
2023/06/17 07:50:08;;;;;;;5.53;2.33;;;;;;;;;;5076227;27;98976;-77
2023/06/17 07:52:35;;;;;;;7.97;2.20;;;;;;;;;;5072415;27;99866;-78
2023/06/17 07:55:02;;;;;;;10.50;3.10;;;;;;;;;;5094845;27;99482;-79
2023/06/17 07:57:33;;;;;;;3.35;2.25;;;;;;;;;;5093957;27;100032;-79
2023/06/17 08:00:00;;;;;;;2.60;2.40;;;;;;;;;;5089939;27;98647;-73
2023/06/17 08:02:26;;;;;;;3.67;2.58;;;;;;;;;;5077122;27;98624;-78
2023/06/17 08:04:53;;;;;;;2.38;2.15;;;;;;;;;;5072753;27;100137;-76
2023/06/17 08:07:20;;;;;;;3.33;2.13;;;;;;;;;;5074728;27;98324;-78
2023/06/17 08:09:46;;;;;;;2.50;2.30;;;;;;;;;;5092669;27;98377;-79
2023/06/17 08:12:12;;;;;;;7.82;1.90;;;;;;;;;;5089483;27;100050;-81
2023/06/17 08:14:39;;;;;;;2.80;2.33;;;;;;;;;;5083052;27;100050;-81
2023/06/17 08:17:05;;;;;;;2.85;2.65;;;;;;;;;;5083238;27;100303;-80
2023/06/17 08:19:33;;;;;;;2.17;2.08;;;;;;;;;;5084383;27;99853;-81
2023/06/17 08:22:00;;;;;;;4.15;2.40;;;;;;;;;;5080534;27;99465;-81
2023/06/17 08:24:26;;;;;;;2.35;2.22;;;;;;;;;;5084831;27;98991;-80
2023/06/17 08:26:53;;;;;;;3.25;2.00;;;;;;;;;;5089291;27;98269;-81
2023/06/17 08:29:20;;;;;;;2.47;2.28;;;;;;;;;;5079839;27;99549;-81
2023/06/17 08:31:48;;;;;;;3.53;2.38;;;;;;;;;;5078367;27;98814;-82
2023/06/17 08:34:14;;;;;;;5.80;2.33;;;;;;;;;;5091780;27;98284;-80
2023/06/17 08:36:41;;;;;;;3.05;2.47;;;;;;;;;;5084678;27;99211;-79
2023/06/17 08:39:08;;;;;;;3.72;1.90;;;;;;;;;;5080357;27;98369;-79
2023/06/17 08:41:37;;;;;;;2.13;2.03;;;;;;;;;;5078978;27;99433;-79
2023/06/17 08:44:04;;;;;;;5.93;2.50;;;;;;;;;;5069622;27;100152;-79
2023/06/17 08:46:33;;;;;;;2.00;1.90;;;;;;;;;;5068617;27;98239;-79
2023/06/17 08:48:59;;;;;;;2.33;2.15;;;;;;;;;;5066444;27;99572;-76
2023/06/17 08:51:26;;;;;;;2.55;2.35;;;;;;;;;;5067992;27;100581;-79
2023/06/17 08:53:53;;;;;;;3.28;2.10;;;;;;;;;;5082364;27;99573;-78
2023/06/17 08:56:20;;;;;;;4.28;2.17;;;;;;;;;;5074885;27;99253;-77
2023/06/17 08:58:47;;;;;;;6.57;2.22;;;;;;;;;;5073671;27;98935;-78
2023/06/17 09:01:13;;;;;;;5.63;2.40;;;;;;;;;;5082463;27;99443;-79
2023/06/17 09:03:43;;;;;;;2.20;2.10;;;;;;;;;;5070826;27;99975;-78
2023/06/17 09:06:27;;;;;;;5.55;2.17;;;;;;;;;;5079932;27;98194;-79
2023/06/17 09:08:55;;;;;;;2.13;2.00;;;;;;;;;;5087390;27;99836;-76
2023/06/17 09:11:22;;;;;;;4.50;2.20;;;;;;;;;;5076631;27;99059;-76
2023/06/17 09:13:52;;;;;;;2.30;2.20;;;;;;;;;;5066816;27;98346;-77
2023/06/17 09:16:33;;;;;;;2.10;1.93;;;;;;;;;;5075783;27;100006;-78
2023/06/17 09:19:01;;;;;;;2.20;2.10;;;;;;;;;;5086233;27;100065;-78
2023/06/17 09:21:27;;;;;;;2.33;2.13;;;;;;;;;;5084558;27;100339;-76
2023/06/17 09:23:58;;;;;;;2.80;1.83;;;;;;;;;;5067271;27;99550;-78
2023/06/17 09:26:34;;;;;;;2.92;2.50;;;;;;;;;;5078772;27;98191;-78
2023/06/17 09:29:05;;;;;;;2.38;2.05;;;;;;;;;;5087797;27;98356;-77
2023/06/17 09:31:33;;;;;;;1.98;1.88;;;;;;;;;;5075487;27;99204;-73
2023/06/17 09:34:03;;;;;;;2.78;2.00;;;;;;;;;;5086411;27;98426;-74
2023/06/17 09:36:29;;;;;;;2.85;2.00;;;;;;;;;;5087064;27;98472;-74
2023/06/17 09:38:58;;;;;;;2.03;1.92;;;;;;;;;;5083673;27;98815;-74
2023/06/17 09:41:25;;;;;;;3.13;2.60;;;;;;;;;;5089985;27;99296;-72
2023/06/17 09:43:52;;;;;;;3.08;1.90;;;;;;;;;;5087193;27;99923;-79
2023/06/17 09:46:24;;;;;;;2.20;1.73;;;;;;;;;;5066523;27;98417;-73
2023/06/17 09:48:54;;;;;;;2.33;2.22;;;;;;;;;;5086740;27;99281;-74
2023/06/17 09:51:21;;;;;;;3.63;2.42;;;;;;;;;;5085388;27;99121;-74
2023/06/17 09:53:49;;;;;;;4.50;2.10;;;;;;;;;;5085179;27;98962;-74
2023/06/17 09:56:18;;;;;;;2.60;2.28;;;;;;;;;;5081434;27;98624;-76
2023/06/17 09:58:45;;;;;;;2.67;2.22;;;;;;;;;;5066891;27;100097;-77
2023/06/17 10:01:12;;;;;;;6.30;2.00;;;;;;;;;;5085168;27;98241;-78
2023/06/17 10:03:39;;;;;;;2.85;2.38;;;;;;;;;;5087108;27;99749;-79
2023/06/17 10:06:10;;;;;;;2.33;1.90;;;;;;;;;;5083086;27;99282;-80
2023/06/17 10:08:39;;;;;;;8.98;2.33;;;;;;;;;;5069029;27;98406;-76
2023/06/17 10:11:05;;;;;;;2.97;2.20;;;;;;;;;;5079655;27;99383;-78
2023/06/17 10:13:35;;;;;;;3.33;2.25;;;;;;;;;;5084484;27;98529;-76
2023/06/17 10:16:03;;;;;;;7.07;2.25;;;;;;;;;;5080544;27;100343;-74
2023/06/17 10:18:32;;;;;;;5.55;2.65;;;;;;;;;;5080545;27;100341;-76
2023/06/17 10:21:00;;;;;;;2.50;2.30;;;;;;;;;;5081804;27;98232;-76
2023/06/17 10:23:27;;;;;;;3.05;2.75;;;;;;;;;;5079271;27;99218;-76
2023/06/17 10:25:53;;;;;;;4.50;2.20;;;;;;;;;;5080752;27;100549;-76
2023/06/17 10:28:20;;;;;;;3.28;2.13;;;;;;;;;;5082501;27;98490;-76
2023/06/17 10:30:49;;;;;;;2.10;2.00;;;;;;;;;;5089927;27;100184;-76
2023/06/17 10:33:15;;;;;;;2.65;2.10;;;;;;;;;;5084488;27;99352;-76
2023/06/17 10:35:43;;;;;;;4.72;1.95;;;;;;;;;;5080254;27;99592;-75
2023/06/17 10:38:26;;;;;;;2.72;2.45;;;;;;;;;;5084903;27;100141;-74
2023/06/17 10:40:56;;;;;;;2.63;2.40;;;;;;;;;;5061955;27;98335;-77
2023/06/17 10:43:27;;;;;;;4.13;2.17;;;;;;;;;;5089115;27;98558;-76
2023/06/17 10:45:56;;;;;;;6.18;2.20;;;;;;;;;;5068220;27;100012;-77
2023/06/17 10:48:23;;;;;;;2.35;2.13;;;;;;;;;;5082470;27;98117;-78
2023/06/17 10:50:54;;;;;;;2.85;2.13;;;;;;;;;;5078269;27;99612;-75
2023/06/17 10:53:35;;;;;;;2.42;2.33;;;;;;;;;;5064906;27;98379;-75
2023/06/17 10:56:06;;;;;;;2.85;2.30;;;;;;;;;;5076803;27;99394;-76
2023/06/17 10:58:47;;;;;;;2.97;2.15;;;;;;;;;;5085177;27;100201;-75
2023/06/17 11:01:14;;;;;;;3.13;2.70;;;;;;;;;;5089901;27;98229;-76
2023/06/17 11:03:41;;;;;;;3.30;3.10;;;;;;;;;;5090240;27;99880;-75
2023/06/17 11:06:09;;;;;;;4.43;2.58;;;;;;;;;;5086509;27;98878;-75
2023/06/17 11:08:38;;;;;;;3.15;2.03;;;;;;;;;;5076704;27;98380;-76
2023/06/17 11:11:15;;;;;;;5.28;2.40;;;;;;;;;;5076915;27;101173;-76
2023/06/17 11:13:47;;;;;;;2.65;2.47;;;;;;;;;;5090747;27;98600;-76
2023/06/17 11:16:14;;;;;;;2.55;2.28;;;;;;;;;;5088834;27;99305;-75
2023/06/17 11:18:46;;;;;;;2.30;2.15;;;;;;;;;;5089926;27;100341;-75
2023/06/17 11:21:17;;;;;;;3.15;2.47;;;;;;;;;;5090264;27;98221;-75
2023/06/17 11:23:45;;;;;;;2.58;2.42;;;;;;;;;;5087120;27;100688;-75
2023/06/17 11:26:12;;;;;;;5.13;2.60;;;;;;;;;;5086424;27;100021;-73
2023/06/17 11:28:39;;;;;;;6.95;2.47;;;;;;;;;;5074185;27;98764;-72
2023/06/17 11:31:07;;;;;;;2.88;2.42;;;;;;;;;;5087436;27;98659;-74
2023/06/17 11:33:37;;;;;;;2.53;2.33;;;;;;;;;;5089738;27;98277;-76
2023/06/17 11:36:09;;;;;;;2.97;2.75;;;;;;;;;;5088430;27;98454;-75
2023/06/17 11:38:37;;;;;;;4.20;2.47;;;;;;;;;;5070167;27;99144;-75
2023/06/17 11:41:04;;;;;;;4.25;2.95;;;;;;;;;;5067529;27;98969;-74
2023/06/17 11:43:31;;;;;;;4.93;2.50;;;;;;;;;;5069372;27;99409;-74
2023/06/17 11:45:58;;;;;;;3.90;2.70;;;;;;;;;;5077871;27;98965;-74
2023/06/17 11:48:35;;;;;;;3.28;2.83;;;;;;;;;;5077474;27;98308;-74
2023/06/17 11:51:02;;;;;;;3.10;2.88;;;;;;;;;;5067908;27;98698;-74
2023/06/17 11:53:29;;;;;;;2.65;2.42;;;;;;;;;;5072170;27;100645;-74
2023/06/17 11:56:00;;;;;;;11.25;2.40;;;;;;;;;;5069140;27;99412;-74
2023/06/17 11:58:31;;;;;;;4.35;2.45;;;;;;;;;;5077530;27;100429;-74
2023/06/17 12:01:00;;;;;;;7.72;2.67;;;;;;;;;;5087724;27;98301;-76
2023/06/17 12:03:30;;;;;;;2.80;2.38;;;;;;;;;;5088863;27;99357;-77
2023/06/17 12:05:57;;;;;;;2.80;2.60;;;;;;;;;;5091663;27;98550;-78
2023/06/17 12:08:31;;;;;;;7.07;2.05;;;;;;;;;;5094150;27;98722;-77
2023/06/17 12:10:57;;;;;;;3.55;2.95;;;;;;;;;;5092270;27;99999;-76
2023/06/17 12:13:24;;;;;;;2.38;2.22;;;;;;;;;;5055573;27;99144;-78
2023/06/17 12:15:51;;;;;;;3.85;2.50;;;;;;;;;;5073381;27;98287;-78
2023/06/17 12:18:18;;;;;;;4.28;2.75;;;;;;;;;;5080470;27;99539;-78
2023/06/17 12:20:51;;;;;;;6.30;2.35;;;;;;;;;;5086328;27;98368;-77
2023/06/17 12:23:20;;;;;;;3.00;2.80;;;;;;;;;;5071443;27;99728;-77
2023/06/17 12:25:46;;;;;;;2.63;2.50;;;;;;;;;;5068005;27;98900;-77
2023/06/17 12:28:13;;;;;;;2.75;2.55;;;;;;;;;;5070200;27;98037;-77
2023/06/17 12:30:41;;;;;;;3.53;2.65;;;;;;;;;;5069815;27;99863;-77
2023/06/17 12:33:07;;;;;;;4.13;2.90;;;;;;;;;;5070285;27;100636;-77
2023/06/17 12:35:34;;;;;;;2.97;2.78;;;;;;;;;;5070520;27;98144;-77
2023/06/17 12:38:00;;;;;;;3.58;2.58;;;;;;;;;;5076280;27;99576;-78
2023/06/17 12:40:27;;;;;;;2.70;2.60;;;;;;;;;;5072869;27;98215;-78
2023/06/17 12:42:55;;;;;;;3.15;2.72;;;;;;;;;;5070413;27;98562;-76
2023/06/17 12:45:24;;;;;;;3.08;2.58;;;;;;;;;;5071922;27;98944;-78
2023/06/17 12:47:54;;;;;;;5.57;2.70;;;;;;;;;;5067744;27;98496;-77
2023/06/17 12:50:21;;;;;;;4.72;2.53;;;;;;;;;;5067841;27;99448;-77
2023/06/17 12:52:51;;;;;;;2.55;2.40;;;;;;;;;;5067918;27;98071;-76
2023/06/17 12:55:17;;;;;;;2.72;2.40;;;;;;;;;;5066743;27;98291;-78
2023/06/17 12:57:45;;;;;;;4.43;2.35;;;;;;;;;;5071517;27;100062;-78
2023/06/17 13:00:12;;;;;;;2.60;2.40;;;;;;;;;;5067948;27;98357;-78
2023/06/17 13:02:38;;;;;;;2.42;2.22;;;;;;;;;;5067666;27;99628;-77
2023/06/17 13:05:05;;;;;;;3.38;2.55;;;;;;;;;;5067623;27;99217;-77
2023/06/17 13:07:32;;;;;;;5.30;2.60;;;;;;;;;;5068026;27;98483;-78
2023/06/17 13:10:00;;;;;;;2.58;2.30;;;;;;;;;;5070112;27;98112;-79
2023/06/17 13:12:26;;;;;;;2.80;2.60;;;;;;;;;;5070127;27;98610;-76
2023/06/17 13:14:52;;;;;;;2.40;2.20;;;;;;;;;;5066551;27;98044;-76
2023/06/17 13:17:19;;;;;;;2.47;2.33;;;;;;;;;;5067634;27;98507;-76
2023/06/17 13:19:46;;;;;;;5.55;2.95;;;;;;;;;;5080205;27;99220;-76
2023/06/17 13:22:12;;;;;;;2.60;2.40;;;;;;;;;;5088681;27;99855;-77
2023/06/17 13:24:39;;;;;;;2.40;2.20;;;;;;;;;;5087369;27;98612;-76
2023/06/17 13:27:06;;;;;;;2.80;2.60;;;;;;;;;;5089203;27;98265;-76
2023/06/17 13:29:32;;;;;;;3.42;2.53;;;;;;;;;;5088107;27;98535;-76
2023/06/17 13:31:59;;;;;;;3.42;2.70;;;;;;;;;;5088853;27;98934;-76
2023/06/17 13:34:26;;;;;;;2.22;2.13;;;;;;;;;;5098145;27;98374;-77
2023/06/17 13:36:53;;;;;;;3.53;2.55;;;;;;;;;;5101858;27;98612;-78
2023/06/17 13:39:19;;;;;;;2.95;2.63;;;;;;;;;;5100046;27;98096;-76
2023/06/17 13:41:46;;;;;;;3.78;3.13;;;;;;;;;;5097940;27;98077;-76
2023/06/17 13:44:13;;;;;;;9.40;2.70;;;;;;;;;;5090437;27;98244;-78
2023/06/17 13:46:40;;;;;;;4.35;2.40;;;;;;;;;;5090758;27;98276;-75
2023/06/17 13:49:07;;;;;;;3.00;2.80;;;;;;;;;;5073669;27;99420;-76
2023/06/17 13:51:34;;;;;;;5.38;3.00;;;;;;;;;;5078926;27;99884;-77
2023/06/17 13:54:01;;;;;;;2.65;2.45;;;;;;;;;;5084500;27;99829;-76
2023/06/17 13:56:28;;;;;;;2.65;2.30;;;;;;;;;;5088197;27;98407;-77
2023/06/17 13:58:55;;;;;;;2.80;2.60;;;;;;;;;;5090768;27;100008;-77
2023/06/17 14:01:22;;;;;;;2.60;2.40;;;;;;;;;;5086073;27;98998;-75
2023/06/17 14:03:49;;;;;;;7.57;2.53;;;;;;;;;;5086107;27;99152;-76
2023/06/17 14:06:16;;;;;;;2.85;2.65;;;;;;;;;;5068739;27;98595;-78
2023/06/17 14:08:42;;;;;;;2.63;2.42;;;;;;;;;;5071098;27;99372;-76
2023/06/17 14:11:08;;;;;;;3.60;2.50;;;;;;;;;;5070149;27;100360;-76
2023/06/17 14:13:35;;;;;;;3.28;2.45;;;;;;;;;;5074823;27;98401;-76
2023/06/17 14:16:02;;;;;;;4.10;2.30;;;;;;;;;;5076497;27;98597;-77
2023/06/17 14:18:29;;;;;;;6.90;2.60;;;;;;;;;;5074317;27;99016;-75
2023/06/17 14:20:55;;;;;;;2.88;2.60;;;;;;;;;;5073835;27;98745;-77
2023/06/17 14:23:22;;;;;;;3.30;2.60;;;;;;;;;;5070243;27;99577;-75
2023/06/17 14:25:49;;;;;;;6.20;2.92;;;;;;;;;;5076580;27;99380;-74
2023/06/17 14:28:16;;;;;;;3.20;2.90;;;;;;;;;;5069688;27;99753;-73
2023/06/17 14:30:43;;;;;;;3.28;3.08;;;;;;;;;;5069828;27;99005;-72
2023/06/17 14:33:09;;;;;;;4.32;2.92;;;;;;;;;;5069535;27;98259;-74
2023/06/17 14:35:36;;;;;;;4.65;3.05;;;;;;;;;;5070500;27;99449;-74
2023/06/17 14:38:02;;;;;;;5.88;3.05;;;;;;;;;;5069594;27;100061;-74
2023/06/17 14:40:29;;;;;;;4.97;2.90;;;;;;;;;;5069015;27;98566;-74
2023/06/17 14:42:56;;;;;;;4.88;2.83;;;;;;;;;;5069364;27;98534;-74